Time;durP1;ratioP1;P1;durP2;ratioP2;P2;SDS_P1;SDS_P2;PMS_P1;PMS_P2;Temp;Humidity;BMP_temperature;BMP_pressure;BME280_temperature;BME280_humidity;BME280_pressure;Samples;Min_cycle;Max_cycle;Signal;HPM_P1;HPM_P2
2022/09/13 00:00:11;;;;;;;5.07;2.63;;;;;;;15.18;75.03;100261.81;6365291;22;20020;-76
2022/09/13 00:03:15;;;;;;;5.20;2.70;;;;;;;15.18;75.01;100262.63;6364441;22;20025;-76
2022/09/13 00:06:20;;;;;;;9.38;3.38;;;;;;;15.10;75.21;100257.13;6364960;22;20369;-76
2022/09/13 00:09:24;;;;;;;6.95;3.05;;;;;;;15.03;74.87;100262.03;6364339;22;20025;-77
2022/09/13 00:12:28;;;;;;;8.18;3.10;;;;;;;15.09;74.73;100245.75;6363894;22;20093;-77
2022/09/13 00:15:31;;;;;;;13.50;3.42;;;;;;;15.07;74.82;100239.75;6365180;22;20021;-76
2022/09/13 00:18:35;;;;;;;6.95;2.90;;;;;;;15.06;74.83;100232.81;6365767;22;20464;-76
2022/09/13 00:21:38;;;;;;;9.63;3.13;;;;;;;15.01;74.92;100224.41;6364912;22;20017;-76
2022/09/13 00:24:41;;;;;;;6.30;2.88;;;;;;;15.05;74.97;100225.84;6363677;22;20098;-76
2022/09/13 00:27:45;;;;;;;7.72;3.03;;;;;;;14.92;75.14;100230.38;6363136;22;20445;-77
2022/09/13 00:30:51;;;;;;;7.78;3.30;;;;;;;14.88;75.62;100231.56;6364654;22;20021;-76
2022/09/13 00:33:57;;;;;;;7.32;3.40;;;;;;;14.79;75.64;100229.63;6365432;22;20025;-76
2022/09/13 00:37:00;;;;;;;5.38;3.00;;;;;;;14.71;75.96;100235.47;6364207;22;20029;-76
2022/09/13 00:40:05;;;;;;;8.25;3.00;;;;;;;14.63;75.94;100246.53;6364387;22;20543;-76
2022/09/13 00:43:20;;;;;;;10.52;3.33;;;;;;;14.73;75.49;100240.59;6364448;22;20385;-77
2022/09/13 00:46:41;;;;;;;5.35;2.85;;;;;;;14.77;74.92;100239.41;6365190;22;20107;-76
2022/09/13 00:49:48;;;;;;;8.90;3.40;;;;;;;14.71;75.50;100231.97;6364338;22;20063;-77
2022/09/13 00:53:00;;;;;;;4.32;2.90;;;;;;;14.72;75.22;100236.28;6363970;22;20021;-76
2022/09/13 00:56:03;;;;;;;7.32;3.45;;;;;;;14.69;75.01;100228.63;6362936;22;20053;-77
2022/09/13 00:59:14;;;;;;;8.20;3.15;;;;;;;14.69;75.05;100244.41;6364087;22;20505;-76
2022/09/13 01:02:19;;;;;;;5.85;3.00;;;;;;;14.62;75.37;100242.25;6363948;22;20123;-77
2022/09/13 01:05:29;;;;;;;5.05;2.90;;;;;;;14.58;75.49;100229.41;6364945;22;20021;-76
2022/09/13 01:08:38;;;;;;;5.80;2.88;;;;;;;14.61;75.42;100219.50;6363818;22;20476;-77
2022/09/13 01:12:03;;;;;;;7.80;3.15;;;;;;;14.56;75.22;100218.16;6363814;22;20025;-76
2022/09/13 01:15:07;;;;;;;7.25;2.75;;;;;;;14.42;76.06;100206.84;6363759;22;20074;-76
2022/09/13 01:18:14;;;;;;;11.25;4.93;;;;;;;14.59;75.11;100205.63;6364053;22;20026;-77
2022/09/13 01:21:49;;;;;;;8.13;3.17;;;;;;;14.46;75.53;100202.19;6364005;22;20071;-77
2022/09/13 01:25:15;;;;;;;5.68;2.60;;;;;;;14.58;75.07;100214.47;6362390;22;20025;-76
2022/09/13 01:29:07;;;;;;;7.55;3.10;;;;;;;14.55;75.45;100224.38;6333515;22;20373;-77
2022/09/13 01:32:28;;;;;;;6.68;3.25;;;;;;;14.36;75.76;100211.72;6223367;22;20391;-77
2022/09/13 01:35:58;;;;;;;6.60;3.50;;;;;;;14.26;76.50;100205.41;6332302;22;20300;-77
2022/09/13 01:39:05;;;;;;;6.55;2.90;;;;;;;14.30;76.20;100215.63;6331734;22;20038;-77
2022/09/13 01:42:46;;;;;;;6.97;3.40;;;;;;;14.45;75.51;100220.69;6332545;22;20068;-76
2022/09/13 01:46:05;;;;;;;7.30;3.05;;;;;;;14.49;75.18;100222.19;6332234;22;20461;-77
2022/09/13 01:49:38;;;;;;;6.45;3.10;;;;;;;14.26;76.66;100219.41;6312923;22;20349;-77
2022/09/13 01:53:04;;;;;;;4.82;3.53;;;;;;;14.33;75.82;100219.84;6331255;22;20159;-76
2022/09/13 01:56:36;;;;;;;3.95;2.58;;;;;;;14.39;75.74;100217.59;6332581;22;20021;-77
2022/09/13 01:59:52;;;;;;;7.85;3.17;;;;;;;14.55;74.85;100219.97;6332342;22;20489;-76
2022/09/13 02:03:17;;;;;;;9.23;2.67;;;;;;;14.42;75.19;100221.75;6314006;22;20362;-76
2022/09/13 02:06:33;;;;;;;7.45;2.47;;;;;;;14.32;75.83;100226.03;6331290;22;20018;-77
2022/09/13 02:09:43;;;;;;;8.63;3.53;;;;;;;14.24;76.74;100231.00;6332116;22;20097;-76
2022/09/13 02:12:48;;;;;;;5.10;2.90;;;;;;;14.25;76.51;100232.69;6332045;22;20080;-76
2022/09/13 02:16:00;;;;;;;9.15;3.00;;;;;;;14.49;75.39;100238.81;6331983;22;20021;-77
2022/09/13 02:19:17;;;;;;;9.30;3.08;;;;;;;14.41;75.97;100233.25;6332192;22;20086;-77
2022/09/13 02:22:28;;;;;;;5.93;2.85;;;;;;;14.40;76.33;100228.94;6332139;22;20503;-76
2022/09/13 02:25:35;;;;;;;7.68;3.83;;;;;;;14.38;76.26;100233.47;6332184;22;20025;-77
2022/09/13 02:28:46;;;;;;;6.25;3.00;;;;;;;14.23;77.06;100232.81;6332858;22;20355;-77
2022/09/13 02:31:58;;;;;;;7.18;2.97;;;;;;;14.36;76.67;100232.75;6333023;22;20021;-76
2022/09/13 02:35:10;;;;;;;4.30;2.90;;;;;;;14.38;76.71;100226.41;6331726;22;20496;-76
2022/09/13 02:38:29;;;;;;;7.40;3.17;;;;;;;14.38;76.86;100225.56;6333680;22;20084;-76
2022/09/13 02:41:45;;;;;;;6.03;3.50;;;;;;;14.28;77.71;100228.03;6331710;22;20037;-76
2022/09/13 02:44:52;;;;;;;7.55;3.90;;;;;;;14.40;77.24;100219.25;6331624;22;20024;-76
2022/09/13 02:48:02;;;;;;;6.70;3.20;;;;;;;14.30;77.26;100220.06;6332309;22;20018;-76
2022/09/13 02:51:16;;;;;;;10.55;3.63;;;;;;;14.32;77.45;100213.69;6334426;22;20112;-76
2022/09/13 02:54:32;;;;;;;7.78;3.92;;;;;;;14.38;77.42;100215.06;6334673;22;20203;-76
2022/09/13 02:57:41;;;;;;;5.35;3.20;;;;;;;14.49;76.65;100207.22;6334227;22;20024;-76
2022/09/13 03:00:46;;;;;;;7.35;3.47;;;;;;;14.29;77.73;100208.66;6334526;22;20106;-76
2022/09/13 03:03:52;;;;;;;7.35;3.20;;;;;;;14.32;77.55;100205.81;6333173;22;20026;-76
2022/09/13 03:06:55;;;;;;;6.90;3.65;;;;;;;14.30;77.20;100212.16;6315448;22;20021;-77
2022/09/13 03:10:05;;;;;;;;;;;;;;;14.25;77.38;100204.59;6334676;22;20021;-76
2022/09/13 03:13:23;;;;;;;7.15;3.38;;;;;;;14.16;78.08;100190.31;6334340;22;19942;-76
2022/09/13 03:16:51;;;;;;;6.68;3.40;;;;;;;14.25;77.44;100191.44;6334433;22;20076;-76
2022/09/13 03:20:08;;;;;;;5.55;3.38;;;;;;;14.33;76.86;100185.63;6333608;22;20025;-76
2022/09/13 03:23:31;;;;;;;6.82;3.10;;;;;;;14.40;76.27;100182.44;6333515;22;20126;-76
2022/09/13 03:26:37;;;;;;;7.78;3.15;;;;;;;14.31;76.82;100177.84;6338107;22;20021;-76
2022/09/13 03:30:11;;;;;;;9.63;4.28;;;;;;;14.03;78.32;100179.00;6365223;22;20353;-76
2022/09/13 03:33:25;;;;;;;5.30;3.05;;;;;;;14.31;77.37;100184.91;6364385;22;20398;-76
2022/09/13 03:37:02;;;;;;;7.35;3.53;;;;;;;14.31;76.92;100166.50;6364962;22;20057;-77
2022/09/13 03:40:15;;;;;;;5.47;3.05;;;;;;;14.29;77.04;100165.75;6365092;22;20029;-76
2022/09/13 03:43:37;;;;;;;8.25;3.30;;;;;;;14.30;77.08;100164.81;6345387;22;20521;-77
2022/09/13 03:46:48;;;;;;;5.10;3.53;;;;;;;14.36;76.84;100165.22;6364345;22;20021;-76
2022/09/13 03:49:52;;;;;;;6.07;3.30;;;;;;;14.32;76.96;100168.16;6365380;22;20060;-76
2022/09/13 03:53:07;;;;;;;7.53;3.28;;;;;;;14.42;76.68;100169.16;6363528;22;20024;-76
2022/09/13 03:56:16;;;;;;;10.38;3.50;;;;;;;14.40;76.68;100166.66;6363540;22;20323;-76
2022/09/13 03:59:21;;;;;;;5.78;3.28;;;;;;;14.40;76.82;100171.06;6343873;22;20341;-76
2022/09/13 04:02:29;;;;;;;7.22;3.55;;;;;;;14.13;78.38;100164.25;6364651;22;20029;-76
2022/09/13 04:05:35;;;;;;;6.43;4.50;;;;;;;14.24;77.69;100171.38;6364677;22;20056;-76
2022/09/13 04:08:40;;;;;;;11.27;4.05;;;;;;;14.27;77.68;100171.13;6363201;22;20266;-76
2022/09/13 04:16:58;;;;;;;13.55;4.18;;;;;;;14.40;77.25;100157.94;6364077;22;20098;-76
2022/09/13 04:20:09;;;;;;;9.75;4.22;;;;;;;14.31;77.22;100171.75;6364509;22;20024;-76
2022/09/13 04:33:16;;;;;;;8.70;4.55;;;;;;;14.24;77.84;100170.53;6331324;22;20057;-76
2022/09/13 04:36:31;;;;;;;10.23;5.35;;;;;;;14.36;77.55;100164.38;6331474;22;20050;-76
2022/09/13 04:39:36;;;;;;;10.55;5.72;;;;;;;14.33;78.10;100156.72;6331167;22;20085;-76
2022/09/13 05:50:08;;;;;;;5.97;3.90;;;;;;;14.35;79.33;100202.13;6231528;22;20063;-77
2022/09/13 05:53:12;;;;;;;5.18;3.28;;;;;;;14.34;78.91;100210.97;6225335;23;20026;-77
2022/09/13 05:56:19;;;;;;;9.93;5.88;;;;;;;14.42;78.64;100205.97;6311393;22;20075;-76
2022/09/13 05:59:23;;;;;;;4.03;3.20;;;;;;;14.52;78.06;100201.78;6332780;22;20350;-76
2022/09/13 06:02:26;;;;;;;5.78;3.10;;;;;;;14.47;79.11;100203.03;6333117;22;20037;-76
2022/09/13 06:05:30;;;;;;;10.50;3.63;;;;;;;14.64;77.95;100206.13;6332111;22;20147;-76
2022/09/13 06:08:34;;;;;;;7.40;3.35;;;;;;;14.58;78.60;100210.97;6332241;22;20045;-76
2022/09/13 06:11:38;;;;;;;5.95;3.38;;;;;;;14.52;79.26;100211.47;6331527;22;20482;-76
2022/09/13 06:14:42;;;;;;;5.65;3.50;;;;;;;14.41;79.57;100212.19;6332131;22;20021;-76
2022/09/13 06:17:46;;;;;;;5.47;2.97;;;;;;;14.46;79.25;100217.97;6332975;22;20039;-76
2022/09/13 06:21:00;;;;;;;4.70;3.25;;;;;;;14.58;78.94;100217.13;6332825;22;20069;-76
2022/09/13 06:24:04;;;;;;;6.13;3.40;;;;;;;14.53;78.90;100208.72;6332621;22;20021;-76
2022/09/13 06:27:11;;;;;;;5.85;3.13;;;;;;;14.56;79.47;100213.75;6332690;22;20018;-76
2022/09/13 06:30:15;;;;;;;4.75;3.05;;;;;;;14.61;79.65;100206.38;6333495;22;20189;-76
2022/09/13 06:33:18;;;;;;;7.55;2.65;;;;;;;14.64;79.14;100219.28;6332290;22;20025;-76
2022/09/13 06:36:23;;;;;;;7.60;2.78;;;;;;;14.79;78.91;100224.34;6332366;22;20018;-76
2022/09/13 06:39:26;;;;;;;5.07;3.28;;;;;;;14.73;79.15;100224.81;6331439;22;20092;-76
2022/09/13 06:42:33;;;;;;;6.88;2.67;;;;;;;14.80;79.18;100224.22;6332208;22;20022;-76
2022/09/13 06:45:37;;;;;;;6.47;2.92;;;;;;;14.73;79.18;100224.81;6332046;22;20072;-76
2022/09/13 06:48:43;;;;;;;6.53;3.17;;;;;;;14.86;79.04;100220.31;6333052;22;20053;-76
2022/09/13 06:51:47;;;;;;;5.82;2.70;;;;;;;14.81;78.90;100223.28;6333019;22;20041;-76
2022/09/13 06:54:51;;;;;;;11.75;2.97;;;;;;;14.73;79.16;100214.28;6331845;22;20362;-76
2022/09/13 06:57:54;;;;;;;4.72;3.38;;;;;;;14.80;79.10;100204.97;6331941;22;20501;-76
2022/09/13 07:01:25;;;;;;;6.78;3.55;;;;;;;14.81;79.82;100196.13;6332065;22;20361;-76
2022/09/13 07:04:30;;;;;;;5.63;3.03;;;;;;;15.04;79.59;100187.31;6332824;22;20025;-76
2022/09/13 07:07:33;;;;;;;6.63;2.92;;;;;;;15.03;79.28;100176.94;6332711;22;20281;-76
2022/09/13 07:10:37;;;;;;;6.65;3.80;;;;;;;14.84;80.15;100178.31;6333233;22;20065;-77
2022/09/13 07:13:46;;;;;;;8.88;3.60;;;;;;;14.74;83.63;100173.84;6331984;22;20305;-73
2022/09/13 07:16:50;;;;;;;12.43;4.18;;;;;;;14.97;80.98;100165.06;6332398;22;20022;-76
2022/09/13 07:19:56;;;;;;;7.78;3.80;;;;;;;15.00;79.93;100166.63;6332060;22;20119;-73
2022/09/13 07:22:59;;;;;;;7.75;3.83;;;;;;;14.73;81.67;100166.91;6331535;22;20022;-74
2022/09/13 07:26:04;;;;;;;6.07;3.67;;;;;;;14.87;80.63;100174.63;6331702;22;20346;-74
2022/09/13 07:29:12;;;;;;;8.60;4.45;;;;;;;14.92;79.41;100164.56;6332155;22;20026;-74
2022/09/13 07:32:15;;;;;;;8.15;3.85;;;;;;;15.05;79.23;100157.41;6363846;22;20048;-73
2022/09/13 07:35:19;;;;;;;6.20;3.95;;;;;;;15.19;78.79;100169.53;6364818;22;20406;-73
2022/09/13 07:38:22;;;;;;;4.57;3.90;;;;;;;15.29;78.90;100165.22;6365549;22;20046;-73
2022/09/13 07:41:27;;;;;;;10.30;4.50;;;;;;;15.47;78.75;100156.81;6365144;22;20570;-73
2022/09/13 07:44:30;;;;;;;8.55;4.30;;;;;;;15.56;79.65;100167.47;6365065;22;20051;-74
2022/09/13 07:47:34;;;;;;;5.55;4.47;;;;;;;15.48;79.83;100163.78;6364999;22;20020;-73
2022/09/13 07:50:37;;;;;;;6.95;4.15;;;;;;;15.53;79.04;100166.88;6364986;22;20021;-73
2022/09/13 07:53:43;;;;;;;4.55;4.10;;;;;;;15.73;78.44;100158.28;6365618;22;20030;-73
2022/09/13 07:56:49;;;;;;;7.88;4.10;;;;;;;15.84;78.24;100154.78;6365953;22;20071;-73
2022/09/13 07:59:52;;;;;;;8.20;3.65;;;;;;;15.86;78.76;100162.53;6365789;22;20620;-73
2022/09/13 08:02:55;;;;;;;8.60;3.90;;;;;;;16.00;78.25;100164.94;6364901;22;20078;-74
2022/09/13 08:05:59;;;;;;;10.82;4.30;;;;;;;16.01;77.88;100167.44;6363948;22;20021;-74
2022/09/13 08:09:04;;;;;;;6.05;3.50;;;;;;;16.19;77.19;100164.28;6364566;22;20349;-74
2022/09/13 08:12:07;;;;;;;12.25;4.20;;;;;;;16.13;77.93;100164.78;6365280;22;20442;-74
2022/09/13 08:15:11;;;;;;;12.13;4.05;;;;;;;16.18;78.70;100154.69;6365862;22;20021;-74
2022/09/13 08:18:16;;;;;;;8.30;4.00;;;;;;;16.15;78.18;100165.50;6365707;22;20021;-74
2022/09/13 08:21:20;;;;;;;9.90;4.30;;;;;;;16.21;77.96;100157.91;6370209;22;20065;-74
2022/09/13 08:24:25;;;;;;;4.65;3.67;;;;;;;16.24;78.11;100154.16;6369700;22;20033;-74
2022/09/13 08:27:28;;;;;;;6.70;4.18;;;;;;;16.30;78.16;100156.31;6370092;22;20064;-74
2022/09/13 08:30:35;;;;;;;6.95;4.38;;;;;;;16.36;78.25;100161.09;6370285;22;20324;-73
2022/09/13 08:33:38;;;;;;;9.30;4.10;;;;;;;16.39;77.54;100160.00;6370423;22;20025;-74
2022/09/13 08:36:43;;;;;;;9.05;4.10;;;;;;;16.37;77.73;100156.63;6370162;22;20035;-74
2022/09/13 08:39:46;;;;;;;6.75;3.80;;;;;;;16.31;78.40;100163.28;6370323;22;20082;-74
2022/09/13 08:42:58;;;;;;;8.18;3.97;;;;;;;16.29;78.58;100165.19;6370335;22;20040;-74
2022/09/13 08:46:08;;;;;;;5.78;4.00;;;;;;;16.38;78.20;100153.88;6369954;22;20021;-74
2022/09/13 08:49:25;;;;;;;8.50;4.43;;;;;;;16.44;79.16;100152.56;6369823;22;20047;-74
2022/09/13 08:52:29;;;;;;;10.82;4.68;;;;;;;16.48;79.59;100131.06;6369781;22;20068;-74
2022/09/13 09:26:19;;;;;;;7.75;4.43;;;;;;;16.63;80.57;100143.94;6366593;22;20452;-73
2022/09/13 09:29:31;;;;;;;7.40;4.45;;;;;;;16.73;80.34;100140.41;6369679;22;20342;-74
2022/09/13 09:33:05;;;;;;;6.90;4.33;;;;;;;16.90;81.05;100149.56;6369868;22;20349;-74
2022/09/13 09:36:31;;;;;;;9.23;4.53;;;;;;;16.90;81.59;100149.56;6369532;22;20297;-74
2022/09/13 09:39:38;;;;;;;7.93;4.28;;;;;;;17.02;79.89;100147.69;6369598;22;20029;-74
2022/09/13 09:42:44;;;;;;;8.50;4.30;;;;;;;17.11;80.03;100141.63;6369589;22;20083;-74
2022/09/13 09:45:50;;;;;;;5.38;3.97;;;;;;;17.25;78.55;100148.34;6369668;22;20340;-73
2022/09/13 09:48:58;;;;;;;8.20;3.92;;;;;;;17.38;77.97;100148.97;6369613;22;20021;-74
2022/09/13 09:52:06;;;;;;;6.18;4.05;;;;;;;17.55;77.49;100154.59;6369397;22;20524;-73
2022/09/13 09:55:29;;;;;;;8.40;3.83;;;;;;;17.57;78.21;100147.38;6369484;22;20360;-73
2022/09/13 09:58:44;;;;;;;4.65;3.25;;;;;;;17.73;78.22;100152.97;6369157;22;20033;-73
2022/09/13 10:01:47;;;;;;;9.60;3.80;;;;;;;17.87;77.27;100155.28;6369540;22;20029;-73
2022/09/13 10:04:56;;;;;;;6.38;3.92;;;;;;;17.90;76.28;100151.53;6369655;22;20021;-73
2022/09/13 10:08:04;;;;;;;7.97;3.83;;;;;;;17.90;77.71;100151.53;6369380;22;20079;-73
2022/09/13 10:11:08;;;;;;;6.35;4.20;;;;;;;18.01;77.55;100147.91;6369392;22;20075;-73
2022/09/13 10:14:35;;;;;;;5.05;3.30;;;;;;;17.98;75.99;100150.84;6350158;22;20029;-73
2022/09/13 10:17:38;;;;;;;8.27;3.60;;;;;;;18.23;75.40;100149.47;6369241;22;20017;-73
2022/09/13 10:21:01;;;;;;;8.32;3.50;;;;;;;18.41;76.28;100157.53;6369678;22;20028;-73
2022/09/13 10:24:26;;;;;;;5.50;3.10;;;;;;;18.51;76.22;100161.03;6369192;22;20464;-73
2022/09/13 10:27:38;;;;;;;6.25;3.33;;;;;;;18.62;75.19;100163.53;6369344;22;20393;-72
2022/09/13 10:30:52;;;;;;;6.53;2.92;;;;;;;18.73;74.90;100162.56;6369245;22;20022;-72
2022/09/13 10:34:06;;;;;;;6.30;2.67;;;;;;;18.76;75.47;100149.03;6369224;22;20026;-73
2022/09/13 10:37:13;;;;;;;6.38;3.00;;;;;;;18.89;74.49;100146.09;6369223;22;20056;-73
2022/09/13 10:40:25;;;;;;;4.65;2.50;;;;;;;18.93;73.83;100145.69;6363998;22;20025;-74
2022/09/13 10:43:36;;;;;;;3.05;2.30;;;;;;;19.01;72.95;100140.47;6363729;22;20021;-73
2022/09/13 10:46:41;;;;;;;6.05;2.33;;;;;;;19.10;73.44;100145.91;6363412;22;20082;-73
2022/09/13 10:49:51;;;;;;;4.18;2.33;;;;;;;19.22;74.36;100145.59;6361801;22;20107;-73
2022/09/13 10:53:00;;;;;;;5.47;2.80;;;;;;;19.29;74.19;100151.13;6363580;22;20025;-74
2022/09/13 10:56:17;;;;;;;5.82;2.53;;;;;;;19.28;74.62;100147.66;6343171;22;20025;-74
2022/09/13 10:59:24;;;;;;;7.85;2.40;;;;;;;19.35;74.62;100141.78;6363503;22;20381;-73
2022/09/13 11:02:47;;;;;;;5.82;2.20;;;;;;;19.40;74.27;100128.91;6362917;22;20029;-73
2022/09/13 11:06:10;;;;;;;4.40;2.47;;;;;;;19.46;73.86;100118.56;6344247;22;20204;-74
2022/09/13 11:09:32;;;;;;;3.60;1.88;;;;;;;19.45;73.10;100118.69;6362843;22;20045;-73
2022/09/13 11:12:42;;;;;;;5.10;1.63;;;;;;;19.50;71.87;100103.19;6368091;22;20056;-73
2022/09/13 11:16:15;;;;;;;16.05;1.85;;;;;;;19.63;71.71;100101.03;6367906;22;20079;-73
2022/09/13 11:19:52;;;;;;;3.13;1.77;;;;;;;19.74;70.83;100087.56;6367885;22;20392;-73
2022/09/13 11:23:27;;;;;;;5.47;1.63;;;;;;;19.85;71.07;100091.84;6346747;22;20078;-74
2022/09/13 11:26:52;;;;;;;5.10;1.75;;;;;;;20.02;71.02;100097.28;6367170;22;20369;-73
2022/09/13 11:30:05;;;;;;;5.88;2.08;;;;;;;20.22;70.39;100098.78;6367345;22;20020;-73
2022/09/13 11:33:22;;;;;;;2.60;1.20;;;;;;;20.26;67.54;100089.56;6364994;22;20044;-73
2022/09/13 11:36:52;;;;;;;3.50;1.20;;;;;;;20.31;68.44;100078.47;6364422;22;20025;-73
2022/09/13 11:40:24;;;;;;;3.47;1.13;;;;;;;20.37;67.80;100069.88;6365028;22;20082;-74
2022/09/13 11:43:46;;;;;;;5.68;1.45;;;;;;;20.60;67.01;100071.06;6366194;22;20106;-74
2022/09/13 11:47:02;;;;;;;1.83;0.93;;;;;;;20.84;66.03;100066.91;6364741;22;20452;-74
2022/09/13 11:50:39;;;;;;;2.00;0.98;;;;;;;20.90;65.43;100066.28;6364888;22;20075;-73
2022/09/13 11:54:05;;;;;;;4.43;1.02;;;;;;;20.86;65.16;100062.25;6332678;22;20161;-73
2022/09/13 11:57:17;;;;;;;2.42;1.35;;;;;;;20.76;65.56;100064.19;6365826;22;20021;-73
2022/09/13 12:00:20;;;;;;;3.10;1.30;;;;;;;20.88;63.93;100047.81;6364918;22;20348;-73
2022/09/13 12:03:33;;;;;;;2.70;1.15;;;;;;;21.07;62.91;100040.63;6365014;22;20082;-73
2022/09/13 12:06:40;;;;;;;4.13;1.00;;;;;;;21.20;62.88;100046.31;6364055;22;20018;-73
2022/09/13 12:09:56;;;;;;;5.03;1.10;;;;;;;21.29;62.47;100055.97;6365046;22;20021;-73
2022/09/13 12:13:05;;;;;;;5.55;0.80;;;;;;;21.35;61.91;100054.56;6363956;22;20052;-73
2022/09/13 12:16:19;;;;;;;2.97;1.20;;;;;;;21.23;62.21;100050.47;6364324;22;20025;-73
2022/09/13 12:19:32;;;;;;;3.45;0.90;;;;;;;21.18;61.81;100042.13;6345787;22;20029;-73
2022/09/13 12:22:35;;;;;;;2.13;0.90;;;;;;;21.08;62.51;100043.09;6364097;22;20025;-73
2022/09/13 12:25:47;;;;;;;2.80;0.73;;;;;;;21.01;62.27;100034.09;6364812;22;20021;-73
2022/09/13 12:28:56;;;;;;;4.55;1.13;;;;;;;21.08;62.21;100034.28;6364961;22;20064;-73
2022/09/13 12:32:05;;;;;;;1.90;0.93;;;;;;;21.19;61.80;100035.84;6345304;22;20025;-74
2022/09/13 12:35:38;;;;;;;2.95;0.80;;;;;;;21.39;61.84;100033.78;6363971;22;20061;-73
2022/09/13 12:39:20;;;;;;;2.42;0.60;;;;;;;21.71;59.58;100033.00;6364952;22;20017;-73
2022/09/13 12:42:30;;;;;;;1.42;0.60;;;;;;;22.16;58.77;100034.41;6364827;22;20091;-73
2022/09/13 12:45:57;;;;;;;1.83;0.63;;;;;;;22.35;57.79;100020.72;6364395;22;20110;-74
2022/09/13 12:49:27;;;;;;;3.80;0.88;;;;;;;22.43;57.67;100026.06;6365047;22;20443;-73
2022/09/13 12:52:38;;;;;;;2.55;0.50;;;;;;;22.24;57.89;100024.59;6364356;22;20071;-73
2022/09/13 12:56:12;;;;;;;2.10;0.68;;;;;;;22.36;57.48;100011.72;6365168;22;20109;-73
2022/09/13 12:59:51;;;;;;;4.28;1.15;;;;;;;22.49;58.00;100022.72;6304661;22;20029;-73
2022/09/13 13:03:14;;;;;;;2.00;0.70;;;;;;;22.27;58.21;100015.41;6363681;22;20070;-73
2022/09/13 13:06:25;;;;;;;4.05;1.20;;;;;;;22.44;57.87;100003.75;6365356;22;20397;-73
2022/09/13 13:09:42;;;;;;;3.42;0.93;;;;;;;22.42;58.05;100018.22;6365226;22;20143;-73
2022/09/13 13:12:46;;;;;;;3.58;1.00;;;;;;;22.03;58.87;100016.22;6326876;22;20025;-73
2022/09/13 13:15:54;;;;;;;6.68;2.70;;;;;;;21.71;60.11;100014.38;6364880;22;20024;-73
2022/09/13 13:19:02;;;;;;;2.88;1.40;;;;;;;21.47;60.43;100016.00;6363919;22;20021;-73
2022/09/13 13:22:43;;;;;;;4.28;1.17;;;;;;;21.41;60.54;100016.66;6365027;22;20067;-73
2022/09/13 13:25:56;;;;;;;4.30;0.88;;;;;;;21.69;59.13;100009.22;6364028;22;20021;-73
2022/09/13 13:29:23;;;;;;;2.05;0.57;;;;;;;21.57;59.57;99992.75;6364116;22;20067;-73
2022/09/13 13:32:27;;;;;;;5.65;1.50;;;;;;;21.50;60.83;100004.19;6363635;22;20025;-73
2022/09/13 13:35:31;;;;;;;2.97;1.23;;;;;;;21.42;60.56;99997.03;6363965;22;20476;-73
2022/09/13 13:38:46;;;;;;;6.88;3.17;;;;;;;21.30;60.94;99996.47;6363656;22;20017;-73
2022/09/13 13:41:56;;;;;;;5.75;0.75;;;;;;;21.21;61.09;99994.78;6364153;22;20351;-74
2022/09/13 13:44:59;;;;;;;1.83;0.80;;;;;;;21.13;61.54;99987.63;6364289;22;20052;-73
2022/09/13 13:48:09;;;;;;;2.17;0.82;;;;;;;21.02;62.41;99993.22;6363269;22;20050;-73
2022/09/13 13:51:18;;;;;;;2.38;0.70;;;;;;;20.92;62.25;99994.38;6363748;22;20349;-73
2022/09/13 13:54:49;;;;;;;1.85;0.68;;;;;;;20.85;62.96;99997.66;6362841;22;20071;-73
2022/09/13 13:58:02;;;;;;;2.53;0.70;;;;;;;20.82;62.94;99991.84;6336998;22;20341;-73
2022/09/13 14:01:16;;;;;;;3.63;0.93;;;;;;;20.75;63.54;99994.28;6362634;22;20049;-73
2022/09/13 14:04:35;;;;;;;2.35;0.75;;;;;;;20.74;64.59;99994.44;6341573;22;20526;-73
2022/09/13 14:07:48;;;;;;;1.98;0.63;;;;;;;20.65;68.01;99997.06;6364124;22;20463;-73
2022/09/13 14:11:09;;;;;;;2.78;1.00;;;;;;;20.56;72.88;99990.03;6340424;22;20089;-73
2022/09/13 14:14:40;;;;;;;8.02;1.00;;;;;;;20.51;74.66;99989.66;6362500;22;20071;-73
2022/09/13 14:17:58;;;;;;;7.60;1.40;;;;;;;20.54;81.14;99992.00;6363758;22;20071;-73
2022/09/13 14:21:17;;;;;;;2.42;0.80;;;;;;;20.45;81.99;100000.88;6363578;22;20075;-72
2022/09/13 14:24:23;;;;;;;5.68;1.33;;;;;;;20.29;82.01;100004.28;6364022;22;20024;-71
2022/09/13 14:27:33;;;;;;;3.22;1.00;;;;;;;20.16;83.42;99999.38;6363923;22;20296;-71
2022/09/13 14:30:38;;;;;;;4.22;1.20;;;;;;;20.10;84.56;99989.41;6363083;22;20021;-71
2022/09/13 14:33:41;;;;;;;3.45;1.30;;;;;;;20.17;84.92;99994.91;6363341;22;20045;-71
2022/09/13 14:36:54;;;;;;;3.75;1.08;;;;;;;20.24;83.85;99989.81;6344231;22;20070;-71
2022/09/13 14:40:08;;;;;;;3.25;1.25;;;;;;;20.28;84.05;99985.84;6362677;22;20057;-71
2022/09/13 14:43:15;;;;;;;4.38;1.50;;;;;;;20.22;84.59;99971.38;6343618;22;20167;-72
2022/09/13 14:46:31;;;;;;;5.07;0.98;;;;;;;20.27;84.76;99978.88;6346600;22;20037;-72
2022/09/13 14:49:49;;;;;;;3.47;1.15;;;;;;;20.23;84.44;99980.16;6361197;22;20151;-72
2022/09/13 14:53:00;;;;;;;3.50;1.17;;;;;;;20.09;84.89;99974.44;6362449;22;20025;-71
2022/09/13 14:56:37;;;;;;;5.10;1.13;;;;;;;20.03;87.34;99972.41;6357044;22;20342;-71
2022/09/13 14:59:53;;;;;;;4.55;1.10;;;;;;;20.00;88.39;99972.72;6357993;22;20025;-72
2022/09/13 15:03:04;;;;;;;3.50;1.02;;;;;;;19.91;89.74;99969.19;6366315;22;20026;-71
2022/09/13 15:06:22;;;;;;;3.50;1.27;;;;;;;19.88;88.61;99968.66;6368261;22;20106;-72
2022/09/13 15:09:28;;;;;;;5.10;1.10;;;;;;;19.97;89.27;99968.56;6360454;22;20025;-72
2022/09/13 15:12:35;;;;;;;2.70;1.30;;;;;;;20.06;88.46;99972.09;6364052;22;20024;-72
2022/09/13 15:15:44;;;;;;;6.68;1.88;;;;;;;19.99;89.18;99960.44;6362838;22;20025;-72
2022/09/13 15:19:12;;;;;;;5.72;1.80;;;;;;;20.09;89.13;99955.88;6344504;22;20021;-73
2022/09/13 15:22:44;;;;;;;4.30;2.00;;;;;;;20.18;87.30;99956.75;6361756;22;20074;-72
2022/09/13 15:25:58;;;;;;;3.25;1.25;;;;;;;20.19;88.40;99951.28;6364063;22;20016;-72
2022/09/13 15:29:15;;;;;;;;;;;;;;;20.20;88.23;99955.63;6363540;22;20349;-72
2022/09/13 15:32:29;;;;;;;4.50;1.15;;;;;;;20.28;88.41;99961.97;6364199;22;19913;-72
2022/09/13 15:35:37;;;;;;;5.68;1.45;;;;;;;20.35;88.47;99955.03;6362404;22;20026;-72
2022/09/13 15:39:01;;;;;;;4.05;1.13;;;;;;;20.21;88.72;99956.44;6363986;22;20022;-72
2022/09/13 15:42:13;;;;;;;3.08;1.20;;;;;;;20.14;90.31;99964.19;6363033;22;20029;-72
2022/09/13 15:45:26;;;;;;;6.28;1.50;;;;;;;20.11;90.53;99958.38;6362043;22;20025;-72
2022/09/13 15:48:33;;;;;;;6.47;1.58;;;;;;;20.04;90.62;99959.97;6362775;22;20079;-73
2022/09/13 15:51:43;;;;;;;4.13;1.27;;;;;;;20.02;91.14;99959.31;6360819;22;20029;-72
2022/09/13 15:54:49;;;;;;;3.95;1.55;;;;;;;19.97;91.83;99957.09;6362973;22;20395;-72
2022/09/13 15:57:54;;;;;;;5.32;1.38;;;;;;;20.04;92.55;99947.56;6361819;22;20075;-72
2022/09/13 16:01:05;;;;;;;5.65;1.60;;;;;;;20.10;92.70;99928.34;6361948;22;20030;-72
2022/09/13 16:04:13;;;;;;;4.45;1.27;;;;;;;20.17;92.97;99936.53;6361144;22;20061;-72
2022/09/13 16:07:19;;;;;;;3.35;1.30;;;;;;;20.17;92.01;99931.22;6363819;22;20035;-72
2022/09/13 16:10:27;;;;;;;5.00;1.65;;;;;;;20.11;92.68;99935.31;6363948;22;20067;-72
2022/09/13 16:13:36;;;;;;;10.85;2.03;;;;;;;20.02;93.98;99938.91;6361879;22;20074;-73
2022/09/13 16:16:47;;;;;;;6.50;2.00;;;;;;;19.87;93.54;99945.75;6360486;22;20022;-72
2022/09/13 16:19:54;;;;;;;5.35;1.70;;;;;;;19.91;93.48;99941.78;6361716;22;20034;-73
2022/09/13 16:23:02;;;;;;;6.55;1.40;;;;;;;19.85;94.01;99948.56;6362782;22;20134;-72
2022/09/13 16:26:06;;;;;;;6.05;1.42;;;;;;;19.77;95.06;99956.44;6363740;22;20021;-72
2022/09/13 16:29:12;;;;;;;4.72;2.45;;;;;;;19.76;95.53;99960.09;6362184;22;20397;-72
2022/09/13 16:32:17;;;;;;;10.30;3.25;;;;;;;19.54;95.44;99957.88;6361774;22;20071;-72
2022/09/13 16:35:30;;;;;;;3.95;1.58;;;;;;;19.58;94.48;99961.88;6361072;22;20021;-72
2022/09/13 16:38:39;;;;;;;7.03;2.45;;;;;;;19.58;95.93;99960.06;6361885;22;20068;-72
2022/09/13 16:41:44;;;;;;;5.65;1.90;;;;;;;19.66;95.45;99962.84;6362190;22;20177;-72
2022/09/13 16:44:49;;;;;;;13.63;6.22;;;;;;;19.64;95.35;99962.16;6361170;22;20071;-72
2022/09/13 16:47:56;;;;;;;6.00;3.03;;;;;;;19.56;95.15;99969.16;6361564;22;20345;-72